Time;durP1;ratioP1;P1;durP2;ratioP2;P2;SDS_P1;SDS_P2;PMS_P1;PMS_P2;Temp;Humidity;BMP_temperature;BMP_pressure;BME280_temperature;BME280_humidity;BME280_pressure;Samples;Min_cycle;Max_cycle;Signal;HPM_P1;HPM_P2
2020/12/21 00:01:48;;;;;;;11.00;2.23;;;7.20;1.00;;;;;;4955873;28;20339;-73
2020/12/21 00:04:13;;;;;;;11.00;2.90;;;7.30;1.00;;;;;;4952595;28;20563;-74
2020/12/21 00:06:39;;;;;;;5.33;2.77;;;7.30;1.00;;;;;;4951108;28;20440;-74
2020/12/21 00:09:05;;;;;;;6.87;2.50;;;7.20;1.00;;;;;;4956634;28;20520;-74
2020/12/21 00:11:38;;;;;;;11.50;3.20;;;7.20;1.00;;;;;;4943052;28;20261;-73
2020/12/21 00:14:05;;;;;;;10.80;2.87;;;7.20;1.00;;;;;;4957156;28;20561;-73
2020/12/21 00:16:49;;;;;;;7.80;2.60;;;7.20;1.00;;;;;;4951749;28;20472;-73
2020/12/21 00:19:21;;;;;;;8.50;2.20;;;7.20;1.00;;;;;;4953723;28;20441;-74
2020/12/21 00:21:49;;;;;;;12.13;4.50;;;7.30;1.00;;;;;;4952848;28;20986;-73
2020/12/21 00:24:15;;;;;;;7.47;2.23;;;7.20;1.00;;;;;;4958529;28;20452;-73
2020/12/21 00:26:45;;;;;;;12.23;2.93;;;7.20;1.00;;;;;;4945527;28;24525;-73
2020/12/21 00:29:11;;;;;;;6.60;2.50;;;7.30;1.00;;;;;;4943338;28;20724;-74
2020/12/21 00:31:37;;;;;;;13.00;2.80;;;7.30;1.00;;;;;;4942175;28;20472;-73
2020/12/21 00:34:04;;;;;;;8.00;3.10;;;7.30;1.00;;;;;;4940124;28;20483;-74
2020/12/21 00:36:30;;;;;;;6.70;2.30;;;7.20;1.00;;;;;;4942305;28;21150;-74
2020/12/21 00:38:56;;;;;;;8.47;2.40;;;7.20;1.00;;;;;;4945419;28;20906;-74
2020/12/21 00:41:23;;;;;;;6.40;3.00;;;7.20;1.00;;;;;;4942221;28;20551;-73
2020/12/21 00:43:52;;;;;;;8.20;2.23;;;7.20;1.00;;;;;;4947601;28;20204;-74
2020/12/21 00:46:24;;;;;;;10.67;3.03;;;7.20;1.00;;;;;;4949095;28;20812;-74
2020/12/21 00:48:50;;;;;;;12.07;3.30;;;7.20;1.00;;;;;;4948872;28;20361;-74
2020/12/21 00:51:16;;;;;;;9.40;2.30;;;7.20;1.00;;;;;;4954721;28;20921;-74
2020/12/21 00:53:47;;;;;;;8.87;3.00;;;7.20;1.00;;;;;;4953138;28;20445;-73
2020/12/21 00:56:13;;;;;;;5.97;2.03;;;7.20;1.00;;;;;;4943298;28;20562;-74
2020/12/21 00:58:44;;;;;;;7.23;2.27;;;7.20;1.00;;;;;;4938864;28;20449;-73
2020/12/21 01:01:16;;;;;;;10.87;2.33;;;7.10;1.00;;;;;;4947409;28;20568;-74
2020/12/21 01:03:41;;;;;;;7.50;2.50;;;7.10;1.00;;;;;;4940532;28;21082;-74
2020/12/21 01:06:07;;;;;;;8.53;2.10;;;7.00;1.00;;;;;;4946603;28;20455;-74
2020/12/21 01:08:34;;;;;;;10.87;2.70;;;7.00;1.00;;;;;;4946382;28;20213;-73
2020/12/21 01:11:00;;;;;;;4.53;2.00;;;6.90;1.00;;;;;;4950518;28;20221;-74
2020/12/21 01:13:26;;;;;;;11.13;2.37;;;6.90;1.00;;;;;;4948340;28;20829;-74
2020/12/21 01:15:51;;;;;;;8.27;2.43;;;6.90;1.00;;;;;;4947737;28;20439;-74
2020/12/21 01:18:17;;;;;;;8.90;2.70;;;6.90;1.00;;;;;;4943447;28;20445;-74
2020/12/21 01:20:43;;;;;;;7.13;2.83;;;6.90;1.00;;;;;;4948214;28;20185;-73
2020/12/21 01:23:14;;;;;;;13.43;2.90;;;6.90;1.00;;;;;;4938939;28;20633;-74
2020/12/21 01:25:40;;;;;;;6.80;2.37;;;6.90;1.00;;;;;;4940650;28;20279;-74
2020/12/21 01:28:06;;;;;;;18.10;3.10;;;6.90;1.00;;;;;;4945265;28;20996;-74
2020/12/21 01:30:31;;;;;;;8.67;2.33;;;6.90;1.00;;;;;;4950547;28;21405;-74
2020/12/21 01:32:57;;;;;;;12.10;4.90;;;6.90;1.00;;;;;;4949556;28;20543;-74
2020/12/21 01:35:23;;;;;;;7.50;1.97;;;6.80;1.00;;;;;;4950831;28;20228;-74
2020/12/21 01:37:49;;;;;;;5.87;2.50;;;6.80;1.00;;;;;;4937653;28;20333;-73
2020/12/21 01:40:14;;;;;;;6.27;2.07;;;6.80;1.00;;;;;;4945563;28;20186;-74
2020/12/21 01:42:40;;;;;;;12.13;3.00;;;6.90;1.00;;;;;;4951232;28;20828;-74
2020/12/21 01:45:08;;;;;;;8.20;2.60;;;6.90;1.00;;;;;;4949087;28;20288;-74
2020/12/21 01:47:35;;;;;;;5.10;2.27;;;6.90;1.00;;;;;;4945435;28;20224;-73
2020/12/21 01:50:03;;;;;;;6.20;2.20;;;6.90;1.00;;;;;;4951048;28;20464;-74
2020/12/21 01:52:29;;;;;;;9.30;2.60;;;6.90;1.00;;;;;;4948598;28;20934;-74
2020/12/21 01:54:55;;;;;;;7.33;2.00;;;7.00;1.00;;;;;;4954640;28;20452;-73
2020/12/21 01:57:20;;;;;;;8.70;2.73;;;7.00;1.00;;;;;;4936648;28;20554;-74
2020/12/21 01:59:46;;;;;;;9.60;1.77;;;6.80;1.00;;;;;;4943103;28;20492;-73
2020/12/21 02:02:12;;;;;;;9.90;2.80;;;6.90;1.00;;;;;;4943807;28;20292;-73
2020/12/21 02:04:38;;;;;;;11.40;2.30;;;6.90;1.00;;;;;;4941717;28;20700;-73
2020/12/21 02:07:05;;;;;;;17.13;2.27;;;6.80;1.00;;;;;;4939831;28;20962;-73
2020/12/21 02:09:32;;;;;;;6.60;2.27;;;6.90;1.00;;;;;;4939295;28;20460;-73
2020/12/21 02:11:57;;;;;;;15.00;2.90;;;6.90;1.00;;;;;;4949216;28;20541;-73
2020/12/21 02:14:23;;;;;;;6.30;2.60;;;6.80;1.00;;;;;;4952234;28;20449;-74
2020/12/21 02:16:49;;;;;;;8.97;2.50;;;6.80;1.00;;;;;;4940667;28;20231;-73
2020/12/21 02:19:14;;;;;;;8.60;2.20;;;6.90;1.00;;;;;;4944066;28;20189;-74
2020/12/21 02:21:41;;;;;;;6.60;2.40;;;6.80;1.00;;;;;;4942066;28;20599;-73
2020/12/21 02:24:07;;;;;;;12.90;2.73;;;6.90;1.00;;;;;;4949184;28;20459;-74
2020/12/21 02:26:32;;;;;;;13.03;2.40;;;6.80;1.00;;;;;;4951405;28;20820;-74
2020/12/21 02:28:59;;;;;;;7.20;2.67;;;6.70;1.00;;;;;;4952736;28;20449;-73
2020/12/21 02:31:26;;;;;;;6.90;2.10;;;6.70;1.00;;;;;;4950991;28;20481;-73
2020/12/21 02:33:52;;;;;;;11.83;2.77;;;6.70;1.00;;;;;;4948191;28;20464;-73
2020/12/21 02:36:18;;;;;;;5.50;2.37;;;6.60;1.00;;;;;;4953688;28;20438;-74
2020/12/21 02:38:44;;;;;;;8.63;2.70;;;6.60;1.00;;;;;;4956494;28;20448;-73
2020/12/21 02:41:15;;;;;;;3.63;1.93;;;6.60;1.00;;;;;;4954482;28;21450;-74
2020/12/21 02:43:41;;;;;;;6.37;2.40;;;6.50;1.00;;;;;;4956423;28;20456;-73
2020/12/21 02:46:08;;;;;;;8.77;2.50;;;6.50;1.00;;;;;;4956395;28;20520;-74
2020/12/21 02:48:34;;;;;;;7.70;2.40;;;6.40;1.00;;;;;;4955618;28;20560;-73
2020/12/21 02:51:00;;;;;;;6.30;2.27;;;6.40;1.00;;;;;;4956331;28;20900;-74
2020/12/21 02:53:26;;;;;;;12.47;1.90;;;6.40;1.00;;;;;;4940993;28;20180;-74
2020/12/21 02:55:51;;;;;;;9.17;2.10;;;6.30;1.00;;;;;;4947150;28;20471;-74
2020/12/21 02:58:17;;;;;;;10.43;2.10;;;6.40;1.00;;;;;;4941525;28;20211;-73
2020/12/21 03:00:43;;;;;;;9.73;2.10;;;6.50;1.00;;;;;;4956285;28;20216;-74
2020/12/21 03:03:10;;;;;;;7.00;2.27;;;6.50;1.00;;;;;;4951297;28;20201;-74
2020/12/21 03:05:35;;;;;;;10.37;2.03;;;6.50;1.00;;;;;;4955641;28;20441;-73
2020/12/21 03:08:03;;;;;;;11.67;2.60;;;6.50;1.00;;;;;;4943269;28;20967;-74
2020/12/21 03:10:29;;;;;;;6.27;2.70;;;6.50;1.00;;;;;;4941681;28;20929;-74
2020/12/21 03:12:55;;;;;;;8.00;2.27;;;6.50;1.00;;;;;;4943221;28;20447;-74
2020/12/21 03:15:21;;;;;;;6.97;2.13;;;6.40;1.00;;;;;;4943714;28;20415;-74
2020/12/21 03:17:46;;;;;;;4.37;1.73;;;6.40;1.00;;;;;;4945500;28;20275;-74
2020/12/21 03:20:12;;;;;;;5.00;2.00;;;6.40;1.00;;;;;;4943227;28;20253;-74
2020/12/21 03:22:38;;;;;;;7.73;2.30;;;6.40;1.00;;;;;;4949497;28;20251;-74
2020/12/21 03:25:05;;;;;;;10.33;2.30;;;6.30;1.00;;;;;;4945090;28;20445;-74
2020/12/21 03:27:31;;;;;;;11.87;1.90;;;6.40;1.00;;;;;;4951355;28;21047;-74
2020/12/21 03:29:57;;;;;;;4.60;2.20;;;6.40;1.00;;;;;;4947617;28;20464;-74
2020/12/21 03:32:23;;;;;;;8.00;2.10;;;6.50;1.00;;;;;;4953344;28;20307;-74
2020/12/21 03:34:50;;;;;;;11.37;1.70;;;6.50;1.00;;;;;;4952315;28;20888;-74
2020/12/21 03:37:16;;;;;;;7.57;1.70;;;6.40;1.00;;;;;;4950623;28;20831;-74
2020/12/21 03:39:44;;;;;;;7.93;2.10;;;6.40;1.00;;;;;;4943852;28;20528;-74
2020/12/21 03:42:10;;;;;;;12.90;2.20;;;6.60;1.00;;;;;;4951779;28;20876;-74
2020/12/21 03:44:36;;;;;;;12.47;1.70;;;6.60;1.00;;;;;;4951983;28;20463;-74
2020/12/21 03:47:01;;;;;;;4.80;1.80;;;6.60;1.00;;;;;;4967489;28;20192;-74
2020/12/21 03:49:27;;;;;;;5.73;1.70;;;6.50;1.00;;;;;;4952484;28;20276;-74
2020/12/21 03:51:52;;;;;;;11.93;2.63;;;6.60;1.00;;;;;;4968644;28;20242;-74
2020/12/21 03:54:18;;;;;;;4.37;1.47;;;6.50;1.00;;;;;;4947966;28;20423;-74
2020/12/21 03:56:44;;;;;;;4.80;2.00;;;6.50;1.00;;;;;;4939328;28;20227;-74
2020/12/21 03:59:11;;;;;;;3.70;1.73;;;6.60;1.00;;;;;;4946869;28;20196;-74
2020/12/21 04:01:37;;;;;;;7.93;2.30;;;6.60;1.00;;;;;;4950479;28;20194;-74
2020/12/21 04:04:07;;;;;;;12.93;2.57;;;6.50;1.00;;;;;;4949507;28;20488;-74
2020/12/21 04:06:33;;;;;;;5.30;2.10;;;6.50;1.00;;;;;;4952364;28;20448;-74
2020/12/21 04:08:59;;;;;;;7.60;2.70;;;6.40;1.00;;;;;;4942176;28;20484;-74
2020/12/21 04:11:25;;;;;;;5.80;1.50;;;6.30;1.00;;;;;;4942052;28;21109;-74
2020/12/21 04:13:51;;;;;;;10.77;2.90;;;6.20;1.00;;;;;;4942955;28;20447;-74
2020/12/21 04:16:16;;;;;;;5.93;1.80;;;6.20;1.00;;;;;;4943681;28;20356;-74
2020/12/21 04:18:42;;;;;;;10.63;2.23;;;6.20;1.00;;;;;;4955662;28;20631;-74
2020/12/21 04:21:12;;;;;;;7.60;1.83;;;6.20;1.00;;;;;;4949896;28;20193;-74
2020/12/21 04:23:38;;;;;;;10.53;1.80;;;6.20;1.00;;;;;;4966395;28;20197;-74
2020/12/21 04:26:04;;;;;;;8.50;2.10;;;6.20;1.00;;;;;;4949707;28;20473;-74
2020/12/21 04:28:30;;;;;;;9.50;2.60;;;6.10;1.00;;;;;;4937025;28;20463;-74
2020/12/21 04:30:56;;;;;;;8.67;2.10;;;6.10;1.00;;;;;;4943038;28;20472;-74
2020/12/21 04:33:21;;;;;;;6.13;2.03;;;6.10;1.00;;;;;;4945618;28;20216;-74
2020/12/21 04:35:47;;;;;;;10.10;3.53;;;6.10;1.00;;;;;;4954223;28;20588;-74
2020/12/21 04:38:13;;;;;;;8.30;1.90;;;6.20;1.00;;;;;;4952635;28;20684;-74
2020/12/21 04:40:39;;;;;;;6.90;1.97;;;6.20;1.00;;;;;;4946643;28;20645;-74
2020/12/21 04:43:08;;;;;;;5.73;2.00;;;6.20;1.00;;;;;;4946317;28;20281;-74
2020/12/21 04:45:34;;;;;;;9.97;2.27;;;6.10;1.00;;;;;;4959063;28;20468;-74
2020/12/21 04:48:05;;;;;;;12.17;1.70;;;6.10;1.00;;;;;;4953477;28;20437;-74
2020/12/21 04:50:32;;;;;;;13.20;1.83;;;6.10;1.00;;;;;;4950376;28;20954;-74
2020/12/21 04:52:59;;;;;;;10.40;2.00;;;6.00;1.00;;;;;;4941390;28;22250;-74
2020/12/21 04:55:25;;;;;;;11.00;1.93;;;6.00;1.00;;;;;;4942283;28;20457;-74
2020/12/21 04:57:55;;;;;;;6.80;1.63;;;6.00;1.00;;;;;;4949707;28;20454;-74
2020/12/21 05:00:21;;;;;;;9.13;1.83;;;5.90;1.00;;;;;;4951012;28;20968;-73
2020/12/21 05:02:47;;;;;;;5.70;1.60;;;5.90;1.00;;;;;;4949348;28;20504;-74
2020/12/21 05:05:13;;;;;;;8.43;1.83;;;5.90;1.00;;;;;;4953789;28;20479;-74
2020/12/21 05:07:39;;;;;;;11.97;2.17;;;5.90;1.00;;;;;;4951646;28;20468;-74
2020/12/21 05:10:06;;;;;;;7.07;1.93;;;5.90;1.00;;;;;;4949306;28;21025;-74
2020/12/21 05:12:32;;;;;;;3.00;2.10;;;6.00;1.00;;;;;;4964266;28;20224;-74
2020/12/21 05:14:57;;;;;;;7.67;2.27;;;6.00;1.00;;;;;;4946977;28;20813;-75
2020/12/21 05:17:23;;;;;;;4.60;1.97;;;6.00;1.00;;;;;;4949992;28;20189;-74
2020/12/21 05:19:49;;;;;;;8.53;1.93;;;5.90;1.00;;;;;;4949788;28;20202;-74
2020/12/21 05:22:15;;;;;;;3.10;1.43;;;5.90;1.00;;;;;;4948558;28;20777;-74
2020/12/21 05:24:42;;;;;;;6.93;1.63;;;5.90;1.00;;;;;;4951709;28;20734;-74
2020/12/21 05:27:13;;;;;;;11.17;3.20;;;5.90;1.00;;;;;;4950387;28;20636;-74
2020/12/21 05:29:39;;;;;;;11.33;2.30;;;5.90;1.00;;;;;;4951251;28;20814;-76
2020/12/21 05:32:05;;;;;;;7.03;2.17;;;6.00;1.00;;;;;;4945868;28;20485;-74
2020/12/21 05:34:30;;;;;;;5.20;1.90;;;6.00;1.00;;;;;;4959853;28;20565;-74
2020/12/21 05:36:56;;;;;;;9.53;1.90;;;6.10;1.00;;;;;;4949995;28;20795;-74
2020/12/21 05:39:22;;;;;;;6.77;2.10;;;6.00;1.00;;;;;;4953400;28;20480;-74
2020/12/21 05:41:47;;;;;;;4.57;1.90;;;6.00;1.00;;;;;;4951640;28;20436;-75
2020/12/21 05:44:13;;;;;;;5.13;1.70;;;6.10;1.00;;;;;;4954021;28;20331;-74
2020/12/21 05:46:39;;;;;;;8.30;2.63;;;6.10;1.00;;;;;;4952603;28;20180;-74
2020/12/21 05:49:05;;;;;;;6.13;1.30;;;6.20;1.00;;;;;;4950502;28;20280;-74
2020/12/21 05:51:38;;;;;;;6.77;1.77;;;6.20;1.00;;;;;;4949715;28;20926;-74
2020/12/21 05:54:05;;;;;;;5.60;1.50;;;6.20;1.00;;;;;;4949440;28;20176;-73
2020/12/21 05:56:36;;;;;;;5.27;1.80;;;6.20;1.00;;;;;;4946801;28;20471;-73
2020/12/21 05:59:03;;;;;;;5.93;1.70;;;6.20;1.00;;;;;;4951293;28;20452;-74
2020/12/21 06:01:29;;;;;;;8.70;1.83;;;6.20;1.00;;;;;;4951078;28;20453;-74
2020/12/21 06:04:04;;;;;;;6.50;2.00;;;6.20;1.00;;;;;;4955403;28;20475;-74
2020/12/21 06:06:32;;;;;;;11.63;2.87;;;6.20;1.00;;;;;;4952155;28;20918;-74
2020/12/21 06:09:00;;;;;;;4.07;1.77;;;6.20;1.00;;;;;;4943723;28;20507;-74
2020/12/21 06:11:28;;;;;;;4.70;1.83;;;6.20;1.00;;;;;;4953513;28;20563;-73
2020/12/21 06:13:58;;;;;;;5.73;1.53;;;6.30;1.00;;;;;;4941408;28;20481;-74
2020/12/21 06:16:29;;;;;;;9.70;1.90;;;6.30;1.00;;;;;;4953111;28;20449;-74
2020/12/21 06:19:00;;;;;;;4.60;1.33;;;6.30;1.00;;;;;;4958841;28;20443;-74
2020/12/21 06:21:31;;;;;;;3.90;2.20;;;6.30;1.00;;;;;;4961810;28;20487;-74
2020/12/21 06:23:57;;;;;;;6.20;1.53;;;6.30;1.00;;;;;;4956024;28;21131;-74
2020/12/21 06:26:38;;;;;;;7.73;2.37;;;6.30;1.00;;;;;;4957402;28;20483;-74
2020/12/21 06:29:08;;;;;;;5.57;1.80;;;6.30;1.00;;;;;;4956074;28;20449;-74
2020/12/21 06:31:43;;;;;;;6.80;2.10;;;6.40;1.00;;;;;;4957866;28;20476;-74
2020/12/21 06:34:14;;;;;;;6.40;1.97;;;6.40;1.00;;;;;;4955617;28;20443;-74
2020/12/21 06:36:40;;;;;;;5.10;1.83;;;6.40;1.00;;;;;;4950975;28;20547;-74
2020/12/21 06:39:07;;;;;;;6.63;2.47;;;6.40;1.00;;;;;;4951886;28;20806;-76
2020/12/21 06:41:33;;;;;;;8.37;2.87;;;6.40;1.00;;;;;;4965740;28;20469;-75
2020/12/21 06:44:02;;;;;;;9.77;2.10;;;6.30;1.00;;;;;;4958723;28;22133;-75
2020/12/21 06:46:28;;;;;;;6.43;2.10;;;6.40;1.00;;;;;;4959448;28;20967;-74
2020/12/21 06:49:08;;;;;;;3.80;1.67;;;6.40;1.00;;;;;;4951897;28;20479;-75
2020/12/21 06:51:42;;;;;;;12.43;2.50;;;6.40;1.00;;;;;;4956802;28;20476;-74
2020/12/21 06:54:10;;;;;;;6.50;2.13;;;6.30;1.00;;;;;;4958596;28;20453;-75
2020/12/21 06:56:43;;;;;;;10.27;2.67;;;6.40;1.00;;;;;;4954466;28;20460;-75
2020/12/21 06:59:16;;;;;;;6.60;1.50;;;6.30;1.00;;;;;;4958845;28;20534;-74
2020/12/21 07:01:44;;;;;;;10.63;2.27;;;6.30;1.00;;;;;;4955095;28;20444;-74
2020/12/21 07:04:18;;;;;;;3.00;1.63;;;6.30;1.00;;;;;;4954335;28;20455;-74
2020/12/21 07:06:49;;;;;;;5.07;1.70;;;6.30;1.00;;;;;;4955190;28;21165;-75
2020/12/21 07:09:21;;;;;;;7.20;2.30;;;6.30;1.00;;;;;;4951795;28;20510;-75
2020/12/21 07:11:55;;;;;;;7.90;2.27;;;6.30;1.00;;;;;;4941580;28;20775;-75
2020/12/21 07:14:22;;;;;;;4.63;2.07;;;6.30;1.00;;;;;;4963657;28;20804;-73
2020/12/21 07:16:49;;;;;;;5.87;2.03;;;6.30;1.00;;;;;;4948651;28;20793;-74
2020/12/21 07:19:15;;;;;;;8.70;2.00;;;6.30;1.00;;;;;;4951622;28;20437;-74
2020/12/21 07:21:41;;;;;;;4.50;1.73;;;6.40;1.00;;;;;;4950014;28;20451;-74
2020/12/21 07:24:09;;;;;;;5.67;2.70;;;6.30;1.00;;;;;;4952043;28;20619;-74
2020/12/21 07:26:36;;;;;;;5.63;2.67;;;6.30;1.00;;;;;;4945753;28;20201;-74
2020/12/21 07:29:02;;;;;;;9.13;1.60;;;6.30;1.00;;;;;;4946184;28;20479;-75
2020/12/21 07:31:28;;;;;;;6.47;3.10;;;6.30;1.00;;;;;;4953126;28;20472;-74
2020/12/21 07:33:59;;;;;;;9.17;2.30;;;6.20;1.00;;;;;;4954564;28;20449;-74
2020/12/21 07:36:30;;;;;;;5.77;2.83;;;6.20;1.00;;;;;;4955092;28;20195;-74
2020/12/21 07:39:10;;;;;;;9.20;2.23;;;6.20;1.00;;;;;;4950573;28;20557;-74
2020/12/21 07:41:39;;;;;;;5.40;2.00;;;6.30;1.00;;;;;;4944643;28;20717;-74
2020/12/21 07:44:13;;;;;;;7.97;2.50;;;6.30;1.00;;;;;;4945935;28;20671;-75
2020/12/21 07:46:45;;;;;;;5.13;1.87;;;6.20;1.00;;;;;;4957736;28;21015;-73
2020/12/21 07:49:13;;;;;;;8.20;2.00;;;6.30;1.00;;;;;;4955507;28;21058;-74
2020/12/21 07:51:42;;;;;;;6.83;2.10;;;6.30;1.00;;;;;;4950428;28;20479;-74
2020/12/21 07:54:08;;;;;;;6.53;2.53;;;6.40;1.00;;;;;;4945995;28;20448;-75
2020/12/21 07:56:34;;;;;;;12.63;2.77;;;6.50;1.00;;;;;;4951244;28;20468;-74
2020/12/21 07:59:11;;;;;;;12.23;3.33;;;6.50;1.00;;;;;;4956706;28;20452;-74
2020/12/21 08:01:39;;;;;;;10.00;2.40;;;6.50;1.00;;;;;;4935805;28;20185;-75
2020/12/21 08:04:16;;;;;;;7.93;2.30;;;6.50;1.00;;;;;;4959945;28;20456;-74
2020/12/21 08:06:42;;;;;;;2.60;1.43;;;6.50;1.00;;;;;;4955439;28;20884;-74
2020/12/21 08:09:09;;;;;;;8.83;3.07;;;6.50;1.00;;;;;;4952308;28;20823;-75
2020/12/21 08:11:36;;;;;;;4.30;2.20;;;6.40;1.00;;;;;;4954904;28;20332;-74
2020/12/21 08:14:03;;;;;;;6.90;2.10;;;6.40;1.00;;;;;;4949798;28;20515;-74
2020/12/21 08:16:28;;;;;;;8.13;2.80;;;6.40;1.00;;;;;;4956775;28;20484;-74
2020/12/21 08:18:54;;;;;;;9.10;2.00;;;6.50;1.00;;;;;;4952412;28;20968;-74
2020/12/21 08:21:27;;;;;;;7.37;3.03;;;6.50;1.00;;;;;;4955336;28;20185;-75
2020/12/21 08:23:55;;;;;;;9.00;2.47;;;6.50;1.00;;;;;;4946602;28;20807;-74
2020/12/21 08:26:22;;;;;;;6.13;1.90;;;6.50;1.00;;;;;;4952248;28;20520;-74
2020/12/21 08:28:49;;;;;;;5.93;2.23;;;6.50;1.00;;;;;;4951559;28;20486;-74
2020/12/21 08:31:21;;;;;;;4.70;2.30;;;6.60;1.00;;;;;;4956565;28;20476;-75
2020/12/21 08:34:04;;;;;;;9.50;2.70;;;6.60;1.00;;;;;;4955560;28;20992;-74
2020/12/21 08:36:33;;;;;;;9.97;2.50;;;6.60;1.00;;;;;;4942324;28;20522;-75
2020/12/21 08:39:15;;;;;;;7.80;2.67;;;6.70;1.00;;;;;;4962220;28;21046;-75
2020/12/21 08:41:46;;;;;;;10.13;3.40;;;6.70;1.00;;;;;;4939971;28;20477;-75
2020/12/21 08:44:20;;;;;;;9.70;2.30;;;6.70;1.00;;;;;;4947529;28;20484;-75
2020/12/21 08:46:47;;;;;;;10.60;2.47;;;6.80;1.00;;;;;;4944408;28;20471;-75
2020/12/21 08:49:13;;;;;;;6.53;1.97;;;6.80;1.00;;;;;;4945369;28;21143;-75
2020/12/21 08:51:39;;;;;;;7.03;2.73;;;6.80;1.00;;;;;;4950352;28;20522;-74
2020/12/21 08:54:05;;;;;;;8.10;2.60;;;6.90;1.00;;;;;;4948908;28;20537;-75
2020/12/21 08:56:30;;;;;;;11.27;2.63;;;6.90;1.00;;;;;;4953291;28;20210;-74
2020/12/21 08:58:56;;;;;;;9.27;2.27;;;6.90;1.00;;;;;;4953172;28;20210;-74
2020/12/21 09:01:21;;;;;;;6.83;2.63;;;7.00;1.00;;;;;;4941113;28;20199;-74
2020/12/21 09:03:47;;;;;;;6.10;1.67;;;7.00;1.00;;;;;;4940177;28;20186;-75
2020/12/21 09:06:21;;;;;;;9.03;2.40;;;7.10;1.00;;;;;;4942704;28;20887;-75
2020/12/21 09:08:48;;;;;;;4.33;1.90;;;7.10;1.00;;;;;;4945587;28;20224;-75
2020/12/21 09:11:18;;;;;;;7.33;2.30;;;7.10;1.00;;;;;;4946302;28;20492;-74
2020/12/21 09:13:43;;;;;;;5.17;2.50;;;7.00;1.00;;;;;;4954572;28;20487;-74
2020/12/21 09:16:09;;;;;;;5.93;2.77;;;7.10;1.00;;;;;;4956326;28;20447;-75
2020/12/21 09:18:35;;;;;;;5.07;2.00;;;7.10;1.00;;;;;;4951685;28;20192;-74
2020/12/21 09:21:02;;;;;;;11.80;2.53;;;7.20;1.00;;;;;;4939574;28;20192;-74
2020/12/21 09:23:28;;;;;;;6.63;1.90;;;7.20;1.00;;;;;;4956459;28;20839;-74
2020/12/21 09:25:54;;;;;;;10.90;2.97;;;7.10;1.00;;;;;;4953371;28;20455;-74
2020/12/21 09:28:19;;;;;;;6.03;2.50;;;7.20;1.00;;;;;;4954257;28;20460;-74
2020/12/21 09:30:45;;;;;;;9.10;2.30;;;7.20;1.00;;;;;;4953435;28;20185;-74
2020/12/21 09:33:11;;;;;;;8.10;2.30;;;7.20;1.00;;;;;;4952489;28;20189;-74
2020/12/21 09:35:36;;;;;;;3.60;2.07;;;7.20;1.00;;;;;;4955402;28;20213;-74
2020/12/21 09:38:02;;;;;;;2.80;1.97;;;7.20;1.00;;;;;;4951682;28;20583;-74
2020/12/21 09:40:28;;;;;;;16.30;2.30;;;7.30;1.00;;;;;;4941621;28;20763;-74
2020/12/21 09:42:54;;;;;;;11.40;2.03;;;7.30;1.00;;;;;;4949726;28;20217;-74
2020/12/21 09:45:19;;;;;;;3.10;1.90;;;7.30;1.00;;;;;;4943835;28;20275;-74
2020/12/21 09:47:45;;;;;;;6.27;2.03;;;7.40;1.00;;;;;;4944231;28;20454;-74
2020/12/21 09:50:12;;;;;;;5.43;2.97;;;7.40;1.00;;;;;;4943544;28;20445;-74
2020/12/21 09:52:38;;;;;;;10.83;2.10;;;7.40;1.00;;;;;;4941281;28;20247;-75
2020/12/21 09:55:04;;;;;;;5.57;2.00;;;7.40;1.00;;;;;;4958257;28;20938;-74
2020/12/21 09:57:29;;;;;;;7.57;2.83;;;7.40;1.00;;;;;;4953386;28;20216;-75
2020/12/21 09:59:55;;;;;;;7.57;2.00;;;7.40;1.00;;;;;;4957401;28;20566;-74
2020/12/21 10:02:21;;;;;;;6.60;1.83;;;7.40;1.00;;;;;;4949791;28;20185;-75
2020/12/21 10:04:46;;;;;;;6.37;2.10;;;7.50;1.00;;;;;;4958873;28;20832;-75
2020/12/21 10:07:12;;;;;;;5.83;2.33;;;7.50;1.00;;;;;;4950371;28;20197;-75
2020/12/21 10:09:38;;;;;;;9.93;2.60;;;7.50;1.00;;;;;;4956143;28;20211;-75
2020/12/21 10:12:04;;;;;;;5.10;2.10;;;7.60;1.00;;;;;;4950357;28;20312;-75
2020/12/21 10:14:30;;;;;;;8.87;2.13;;;7.60;1.00;;;;;;4939715;28;20608;-75
2020/12/21 10:16:55;;;;;;;5.83;2.20;;;7.70;1.00;;;;;;4941815;28;20439;-75
2020/12/21 10:19:21;;;;;;;5.10;2.00;;;7.60;1.00;;;;;;4943626;28;20189;-74
2020/12/21 10:21:47;;;;;;;6.60;1.93;;;7.70;1.00;;;;;;4956012;28;20285;-75
2020/12/21 10:24:13;;;;;;;9.30;2.13;;;7.70;1.00;;;;;;4958703;28;20502;-75
2020/12/21 10:26:40;;;;;;;4.70;1.67;;;7.80;1.00;;;;;;4943349;28;20452;-75
2020/12/21 10:29:06;;;;;;;9.27;2.20;;;7.90;1.00;;;;;;4950996;28;20231;-75
2020/12/21 10:31:32;;;;;;;7.60;1.70;;;7.80;1.00;;;;;;4948074;28;20476;-75
2020/12/21 10:33:57;;;;;;;6.63;2.07;;;7.90;1.00;;;;;;4940893;28;21249;-75
2020/12/21 10:36:23;;;;;;;4.37;1.53;;;8.00;1.00;;;;;;4945512;28;20457;-75
2020/12/21 10:38:49;;;;;;;4.87;1.90;;;8.00;1.00;;;;;;4944138;28;20189;-75
2020/12/21 10:41:18;;;;;;;13.77;2.20;;;7.90;1.00;;;;;;4943092;28;20198;-75
2020/12/21 10:43:44;;;;;;;10.13;2.40;;;7.90;1.00;;;;;;4949208;28;20669;-75
2020/12/21 10:46:10;;;;;;;4.40;1.80;;;7.90;1.00;;;;;;4948120;28;20465;-75
2020/12/21 10:48:36;;;;;;;4.20;2.00;;;8.00;1.00;;;;;;4951822;28;20526;-75
2020/12/21 10:51:01;;;;;;;7.17;2.00;;;8.00;1.00;;;;;;4956552;28;20478;-75
2020/12/21 10:53:27;;;;;;;10.20;1.80;;;8.00;1.00;;;;;;4954769;28;21491;-75
2020/12/21 10:55:52;;;;;;;14.73;2.57;;;8.10;1.00;;;;;;4938915;28;20185;-75
2020/12/21 10:58:18;;;;;;;8.97;2.30;;;8.10;1.00;;;;;;4946798;28;20204;-74
2020/12/21 11:00:45;;;;;;;7.30;2.10;;;8.20;1.00;;;;;;4950031;28;20204;-75
2020/12/21 11:03:11;;;;;;;7.20;2.40;;;8.20;1.00;;;;;;4946305;28;20680;-75
2020/12/21 11:05:37;;;;;;;7.63;2.17;;;8.30;1.00;;;;;;4956945;28;20459;-75
2020/12/21 11:08:03;;;;;;;11.43;3.10;;;8.30;1.00;;;;;;4954311;28;20467;-75
2020/12/21 11:10:29;;;;;;;11.60;1.83;;;8.40;1.00;;;;;;4948285;28;20193;-75
2020/12/21 11:12:56;;;;;;;8.80;2.17;;;8.60;1.00;;;;;;4948458;28;20217;-75
2020/12/21 11:15:21;;;;;;;6.10;2.20;;;8.60;1.00;;;;;;4949348;28;21065;-75
2020/12/21 11:17:47;;;;;;;7.10;2.40;;;8.60;1.00;;;;;;4956795;28;21126;-74
2020/12/21 11:20:13;;;;;;;4.60;2.20;;;8.70;1.00;;;;;;4955155;28;20408;-75
2020/12/21 11:22:38;;;;;;;7.00;2.30;;;8.70;1.00;;;;;;4955934;28;20256;-75
2020/12/21 11:25:04;;;;;;;5.07;1.77;;;8.80;1.00;;;;;;4950940;28;20227;-75
2020/12/21 11:27:30;;;;;;;11.30;2.67;;;8.80;1.00;;;;;;4957110;28;20324;-75
2020/12/21 11:29:55;;;;;;;6.20;2.17;;;8.80;1.00;;;;;;4955158;28;20197;-75
2020/12/21 11:32:24;;;;;;;5.87;2.20;;;8.80;1.00;;;;;;4947230;28;20315;-75
2020/12/21 11:34:50;;;;;;;4.50;2.97;;;8.80;1.00;;;;;;4956214;28;20178;-75
2020/12/21 11:37:16;;;;;;;7.13;2.27;;;8.80;1.00;;;;;;4954281;28;20523;-75
2020/12/21 11:39:42;;;;;;;5.90;2.03;;;8.80;1.00;;;;;;4955739;28;20267;-76
2020/12/21 11:42:08;;;;;;;6.73;2.00;;;8.90;1.00;;;;;;4956292;28;20448;-75
2020/12/21 11:44:34;;;;;;;6.57;2.17;;;9.00;1.00;;;;;;4959232;28;20624;-75
2020/12/21 11:46:59;;;;;;;10.47;2.80;;;9.10;1.00;;;;;;4944492;28;20437;-75
2020/12/21 11:49:25;;;;;;;6.00;2.50;;;9.20;1.00;;;;;;4954711;28;20192;-75
2020/12/21 11:51:53;;;;;;;6.40;2.80;;;9.20;1.00;;;;;;4953799;28;20297;-75
2020/12/21 11:54:19;;;;;;;5.00;2.33;;;9.20;1.00;;;;;;4967188;28;20238;-75
2020/12/21 11:56:44;;;;;;;4.87;2.07;;;9.30;1.00;;;;;;4960638;28;20462;-74
2020/12/21 11:59:10;;;;;;;4.60;2.17;;;9.30;1.00;;;;;;4948500;28;20632;-74
2020/12/21 12:01:36;;;;;;;7.27;2.70;;;9.30;1.00;;;;;;4947818;28;20200;-76
2020/12/21 12:04:01;;;;;;;10.07;3.30;;;9.20;1.00;;;;;;4947067;28;20197;-76
2020/12/21 12:06:27;;;;;;;4.87;2.20;;;9.10;1.00;;;;;;4947962;28;20635;-75
2020/12/21 12:08:53;;;;;;;6.50;2.37;;;9.10;1.00;;;;;;4949149;28;20211;-76
2020/12/21 12:11:22;;;;;;;4.27;2.10;;;9.00;1.00;;;;;;4949085;28;20303;-76
2020/12/21 12:13:50;;;;;;;13.30;2.93;;;9.00;1.00;;;;;;4951734;28;21052;-76
2020/12/21 12:16:20;;;;;;;9.63;2.73;;;8.90;1.00;;;;;;4959178;28;20966;-75
2020/12/21 12:18:46;;;;;;;9.93;3.20;;;8.90;1.00;;;;;;4960547;28;22915;-76
2020/12/21 12:21:12;;;;;;;4.90;2.73;;;8.90;1.00;;;;;;4957303;28;20449;-76
2020/12/21 12:23:37;;;;;;;5.30;3.10;;;8.90;1.00;;;;;;4956933;28;20190;-76
2020/12/21 12:26:03;;;;;;;6.60;3.43;;;8.80;1.00;;;;;;4943363;28;20607;-75
2020/12/21 12:28:28;;;;;;;6.27;3.63;;;8.70;1.00;;;;;;4942111;28;20217;-76
2020/12/21 12:30:54;;;;;;;7.30;3.43;;;8.70;1.00;;;;;;4953255;28;20194;-76
2020/12/21 12:33:20;;;;;;;9.33;4.47;;;8.70;1.00;;;;;;4958281;28;20180;-75
2020/12/21 12:35:45;;;;;;;8.60;4.10;;;8.60;1.00;;;;;;4956037;28;20570;-76
2020/12/21 12:38:11;;;;;;;7.13;3.93;;;8.50;1.00;;;;;;4947419;28;20723;-75
2020/12/21 12:40:36;;;;;;;8.43;4.47;;;8.50;1.00;;;;;;4947643;28;20203;-75
2020/12/21 12:43:02;;;;;;;7.47;2.83;;;8.50;1.00;;;;;;4942182;28;20219;-75
2020/12/21 12:45:28;;;;;;;6.60;3.50;;;8.40;1.00;;;;;;4948543;28;20193;-76
2020/12/21 12:47:53;;;;;;;6.20;4.00;;;8.40;1.00;;;;;;4956764;28;20251;-75
2020/12/21 12:50:19;;;;;;;8.17;3.70;;;8.40;1.00;;;;;;4951429;28;20508;-75
2020/12/21 12:52:44;;;;;;;6.83;3.53;;;8.40;1.00;;;;;;4934701;28;20351;-76
2020/12/21 12:55:10;;;;;;;12.00;4.07;;;8.40;1.00;;;;;;4948790;28;20231;-75
2020/12/21 12:57:36;;;;;;;10.13;3.90;;;8.40;1.00;;;;;;4948367;28;20236;-75
2020/12/21 13:00:01;;;;;;;8.73;3.80;;;8.30;1.00;;;;;;4949516;28;20470;-75
2020/12/21 13:02:27;;;;;;;6.57;3.30;;;8.30;1.00;;;;;;4948700;28;20490;-75
2020/12/21 13:04:53;;;;;;;6.00;3.80;;;8.30;1.00;;;;;;4946534;28;20432;-76